sensor_id;sensor_type;location;lat;lon;timestamp;temperature;humidity
23715;DHT22;12036;50.858;4.472;2024-01-10T00:00:15;-3.60;99.50
23715;DHT22;12036;50.858;4.472;2024-01-10T00:02:41;-3.60;99.80
23715;DHT22;12036;50.858;4.472;2024-01-10T00:05:08;-3.70;99.80
23715;DHT22;12036;50.858;4.472;2024-01-10T00:07:33;-3.70;99.90
23715;DHT22;12036;50.858;4.472;2024-01-10T00:10:01;-3.70;99.90
23715;DHT22;12036;50.858;4.472;2024-01-10T00:12:27;-3.80;99.90
23715;DHT22;12036;50.858;4.472;2024-01-10T00:14:58;-3.70;99.90
23715;DHT22;12036;50.858;4.472;2024-01-10T00:17:24;-3.80;99.90
23715;DHT22;12036;50.858;4.472;2024-01-10T00:19:49;-3.70;99.90
23715;DHT22;12036;50.858;4.472;2024-01-10T00:22:15;-3.70;99.90
23715;DHT22;12036;50.858;4.472;2024-01-10T00:24:41;-3.70;99.90
23715;DHT22;12036;50.858;4.472;2024-01-10T00:27:06;-3.80;99.90
23715;DHT22;12036;50.858;4.472;2024-01-10T00:29:32;-3.80;99.90
23715;DHT22;12036;50.858;4.472;2024-01-10T00:31:57;-3.80;99.90
23715;DHT22;12036;50.858;4.472;2024-01-10T00:34:25;-3.90;99.90
23715;DHT22;12036;50.858;4.472;2024-01-10T00:36:50;-3.90;99.90
23715;DHT22;12036;50.858;4.472;2024-01-10T00:39:16;-3.90;99.90
23715;DHT22;12036;50.858;4.472;2024-01-10T00:41:42;-4.00;99.90
23715;DHT22;12036;50.858;4.472;2024-01-10T00:44:08;-4.00;99.90
23715;DHT22;12036;50.858;4.472;2024-01-10T00:46:33;-4.00;99.90
23715;DHT22;12036;50.858;4.472;2024-01-10T00:48:59;-4.00;99.90
23715;DHT22;12036;50.858;4.472;2024-01-10T00:51:25;-4.00;99.90
23715;DHT22;12036;50.858;4.472;2024-01-10T00:53:50;-4.00;99.90
23715;DHT22;12036;50.858;4.472;2024-01-10T00:56:16;-4.10;99.90
23715;DHT22;12036;50.858;4.472;2024-01-10T00:58:42;-4.10;99.90
23715;DHT22;12036;50.858;4.472;2024-01-10T01:01:07;-4.10;99.90
23715;DHT22;12036;50.858;4.472;2024-01-10T01:03:33;-4.10;99.90
23715;DHT22;12036;50.858;4.472;2024-01-10T01:05:59;-4.20;99.90
23715;DHT22;12036;50.858;4.472;2024-01-10T01:08:24;-4.20;99.90
23715;DHT22;12036;50.858;4.472;2024-01-10T01:10:50;-4.20;99.90
23715;DHT22;12036;50.858;4.472;2024-01-10T01:13:16;-4.20;99.90
23715;DHT22;12036;50.858;4.472;2024-01-10T01:15:42;-4.30;99.90
23715;DHT22;12036;50.858;4.472;2024-01-10T01:18:08;-4.30;99.90
23715;DHT22;12036;50.858;4.472;2024-01-10T01:20:35;-4.30;99.90
23715;DHT22;12036;50.858;4.472;2024-01-10T01:23:01;-4.30;99.90
23715;DHT22;12036;50.858;4.472;2024-01-10T01:25:26;-4.40;99.90
23715;DHT22;12036;50.858;4.472;2024-01-10T01:27:52;-4.40;99.90
23715;DHT22;12036;50.858;4.472;2024-01-10T01:30:17;-4.40;99.90
23715;DHT22;12036;50.858;4.472;2024-01-10T01:32:43;-4.40;99.90
23715;DHT22;12036;50.858;4.472;2024-01-10T01:35:09;-4.40;99.90
23715;DHT22;12036;50.858;4.472;2024-01-10T01:37:34;-4.50;99.90
23715;DHT22;12036;50.858;4.472;2024-01-10T01:40:00;-4.50;99.90
23715;DHT22;12036;50.858;4.472;2024-01-10T01:42:25;-4.60;99.90
23715;DHT22;12036;50.858;4.472;2024-01-10T01:44:51;-4.60;99.90
23715;DHT22;12036;50.858;4.472;2024-01-10T01:47:17;-4.60;99.90
23715;DHT22;12036;50.858;4.472;2024-01-10T01:49:42;-4.60;99.90
23715;DHT22;12036;50.858;4.472;2024-01-10T01:52:09;-4.70;99.90
23715;DHT22;12036;50.858;4.472;2024-01-10T01:54:35;-4.80;99.90
23715;DHT22;12036;50.858;4.472;2024-01-10T01:57:01;-4.80;99.90
23715;DHT22;12036;50.858;4.472;2024-01-10T01:59:27;-4.90;99.90
23715;DHT22;12036;50.858;4.472;2024-01-10T02:01:54;-5.00;99.90
23715;DHT22;12036;50.858;4.472;2024-01-10T02:04:20;-5.00;99.90
23715;DHT22;12036;50.858;4.472;2024-01-10T02:06:46;-5.00;99.90
23715;DHT22;12036;50.858;4.472;2024-01-10T02:09:11;-5.00;99.90
23715;DHT22;12036;50.858;4.472;2024-01-10T02:11:37;-5.00;99.90
23715;DHT22;12036;50.858;4.472;2024-01-10T02:14:03;-5.10;99.90
23715;DHT22;12036;50.858;4.472;2024-01-10T02:16:29;-5.10;99.90
23715;DHT22;12036;50.858;4.472;2024-01-10T02:18:55;-5.10;99.90
23715;DHT22;12036;50.858;4.472;2024-01-10T02:21:23;-5.20;99.90
23715;DHT22;12036;50.858;4.472;2024-01-10T02:23:49;-5.20;99.90
23715;DHT22;12036;50.858;4.472;2024-01-10T02:26:15;-5.20;99.90
23715;DHT22;12036;50.858;4.472;2024-01-10T02:28:41;-5.30;99.90
23715;DHT22;12036;50.858;4.472;2024-01-10T02:31:07;-5.30;99.90
23715;DHT22;12036;50.858;4.472;2024-01-10T02:33:33;-5.30;99.90
23715;DHT22;12036;50.858;4.472;2024-01-10T02:35:59;-5.30;99.90
23715;DHT22;12036;50.858;4.472;2024-01-10T02:38:25;-5.30;99.90
23715;DHT22;12036;50.858;4.472;2024-01-10T02:40:52;-5.30;99.90
23715;DHT22;12036;50.858;4.472;2024-01-10T02:43:18;-5.40;99.90
23715;DHT22;12036;50.858;4.472;2024-01-10T02:45:43;-5.40;99.90
23715;DHT22;12036;50.858;4.472;2024-01-10T02:48:09;-5.40;99.90
23715;DHT22;12036;50.858;4.472;2024-01-10T02:50:34;-5.40;99.90
23715;DHT22;12036;50.858;4.472;2024-01-10T02:53:00;-5.40;99.90
23715;DHT22;12036;50.858;4.472;2024-01-10T02:55:26;-5.40;99.90
23715;DHT22;12036;50.858;4.472;2024-01-10T02:57:51;-5.40;99.90
23715;DHT22;12036;50.858;4.472;2024-01-10T03:00:17;-5.50;99.90
23715;DHT22;12036;50.858;4.472;2024-01-10T03:02:42;-5.50;99.90
23715;DHT22;12036;50.858;4.472;2024-01-10T03:05:08;-5.50;99.90
23715;DHT22;12036;50.858;4.472;2024-01-10T03:07:34;-5.60;99.90
23715;DHT22;12036;50.858;4.472;2024-01-10T03:09:59;-5.60;99.90
23715;DHT22;12036;50.858;4.472;2024-01-10T03:12:25;-5.50;99.90
23715;DHT22;12036;50.858;4.472;2024-01-10T03:14:51;-5.50;99.90
23715;DHT22;12036;50.858;4.472;2024-01-10T03:17:16;-5.50;99.90
23715;DHT22;12036;50.858;4.472;2024-01-10T03:19:42;-5.50;99.90
23715;DHT22;12036;50.858;4.472;2024-01-10T03:22:09;-5.50;99.90
23715;DHT22;12036;50.858;4.472;2024-01-10T03:24:36;-5.60;99.90
23715;DHT22;12036;50.858;4.472;2024-01-10T03:27:03;-5.60;99.90
23715;DHT22;12036;50.858;4.472;2024-01-10T03:29:29;-5.60;99.90
23715;DHT22;12036;50.858;4.472;2024-01-10T03:31:55;-5.60;99.90
23715;DHT22;12036;50.858;4.472;2024-01-10T03:34:20;-5.50;99.90
23715;DHT22;12036;50.858;4.472;2024-01-10T03:36:46;-5.60;99.90
23715;DHT22;12036;50.858;4.472;2024-01-10T03:39:11;-5.60;99.90
23715;DHT22;12036;50.858;4.472;2024-01-10T03:41:37;-5.60;99.90
23715;DHT22;12036;50.858;4.472;2024-01-10T03:44:03;-5.60;99.90
23715;DHT22;12036;50.858;4.472;2024-01-10T03:46:29;-5.60;99.90
23715;DHT22;12036;50.858;4.472;2024-01-10T03:48:55;-5.60;99.90
23715;DHT22;12036;50.858;4.472;2024-01-10T03:51:20;-5.50;99.90
23715;DHT22;12036;50.858;4.472;2024-01-10T03:53:46;-5.50;99.90
23715;DHT22;12036;50.858;4.472;2024-01-10T03:56:14;-5.40;99.90
23715;DHT22;12036;50.858;4.472;2024-01-10T03:58:40;-5.40;99.90
23715;DHT22;12036;50.858;4.472;2024-01-10T04:01:06;-5.40;99.90
23715;DHT22;12036;50.858;4.472;2024-01-10T04:03:33;-5.30;99.90
23715;DHT22;12036;50.858;4.472;2024-01-10T04:05:58;-5.20;99.90
23715;DHT22;12036;50.858;4.472;2024-01-10T04:08:24;-5.20;99.90
23715;DHT22;12036;50.858;4.472;2024-01-10T04:10:50;-5.10;99.90
23715;DHT22;12036;50.858;4.472;2024-01-10T04:13:15;-5.00;99.90
23715;DHT22;12036;50.858;4.472;2024-01-10T04:15:41;-5.00;99.90
23715;DHT22;12036;50.858;4.472;2024-01-10T04:18:07;-5.00;99.90
23715;DHT22;12036;50.858;4.472;2024-01-10T04:20:32;-4.90;99.90
23715;DHT22;12036;50.858;4.472;2024-01-10T04:22:58;-5.00;99.90
23715;DHT22;12036;50.858;4.472;2024-01-10T04:25:24;-5.00;99.90
23715;DHT22;12036;50.858;4.472;2024-01-10T04:27:49;-5.00;99.90
23715;DHT22;12036;50.858;4.472;2024-01-10T04:30:18;-5.00;99.90
23715;DHT22;12036;50.858;4.472;2024-01-10T04:32:43;-5.00;99.90
23715;DHT22;12036;50.858;4.472;2024-01-10T04:35:09;-5.00;99.90
23715;DHT22;12036;50.858;4.472;2024-01-10T04:37:35;-4.90;99.90
23715;DHT22;12036;50.858;4.472;2024-01-10T04:40:01;-4.90;99.90
23715;DHT22;12036;50.858;4.472;2024-01-10T04:42:26;-4.90;99.90
23715;DHT22;12036;50.858;4.472;2024-01-10T04:44:52;-4.90;99.90
23715;DHT22;12036;50.858;4.472;2024-01-10T04:47:18;-5.00;99.90
23715;DHT22;12036;50.858;4.472;2024-01-10T04:49:44;-5.00;99.90
23715;DHT22;12036;50.858;4.472;2024-01-10T04:52:10;-5.00;99.90
23715;DHT22;12036;50.858;4.472;2024-01-10T04:54:35;-5.00;99.90
23715;DHT22;12036;50.858;4.472;2024-01-10T04:57:01;-5.00;99.90
23715;DHT22;12036;50.858;4.472;2024-01-10T04:59:26;-4.90;99.90
23715;DHT22;12036;50.858;4.472;2024-01-10T05:01:52;-4.90;99.90
23715;DHT22;12036;50.858;4.472;2024-01-10T05:04:18;-4.90;99.90
23715;DHT22;12036;50.858;4.472;2024-01-10T05:06:44;-4.90;99.90
23715;DHT22;12036;50.858;4.472;2024-01-10T05:09:09;-4.90;99.90
23715;DHT22;12036;50.858;4.472;2024-01-10T05:11:36;-4.90;99.90
23715;DHT22;12036;50.858;4.472;2024-01-10T05:14:02;-4.90;99.90
23715;DHT22;12036;50.858;4.472;2024-01-10T05:16:28;-4.80;99.90
23715;DHT22;12036;50.858;4.472;2024-01-10T05:18:54;-4.80;99.90
23715;DHT22;12036;50.858;4.472;2024-01-10T05:21:20;-4.80;99.90
23715;DHT22;12036;50.858;4.472;2024-01-10T05:23:46;-4.70;99.90
23715;DHT22;12036;50.858;4.472;2024-01-10T05:26:12;-4.50;99.90
23715;DHT22;12036;50.858;4.472;2024-01-10T05:28:37;-4.60;99.90
23715;DHT22;12036;50.858;4.472;2024-01-10T05:31:03;-4.60;99.90
23715;DHT22;12036;50.858;4.472;2024-01-10T05:33:30;-4.60;99.90
23715;DHT22;12036;50.858;4.472;2024-01-10T05:35:55;-4.70;99.90
23715;DHT22;12036;50.858;4.472;2024-01-10T05:38:21;-4.70;99.90
23715;DHT22;12036;50.858;4.472;2024-01-10T05:40:47;-4.60;99.90
23715;DHT22;12036;50.858;4.472;2024-01-10T05:43:12;-4.40;99.90
23715;DHT22;12036;50.858;4.472;2024-01-10T05:45:38;-4.40;99.90
23715;DHT22;12036;50.858;4.472;2024-01-10T05:48:04;-4.50;99.90
23715;DHT22;12036;50.858;4.472;2024-01-10T05:50:30;-4.50;99.90
23715;DHT22;12036;50.858;4.472;2024-01-10T05:52:55;-4.60;99.90
23715;DHT22;12036;50.858;4.472;2024-01-10T05:55:21;-4.70;99.90
23715;DHT22;12036;50.858;4.472;2024-01-10T05:57:48;-4.60;99.90
23715;DHT22;12036;50.858;4.472;2024-01-10T06:00:14;-4.60;99.90
23715;DHT22;12036;50.858;4.472;2024-01-10T06:02:42;-4.60;99.90
23715;DHT22;12036;50.858;4.472;2024-01-10T06:05:09;-4.60;99.90
23715;DHT22;12036;50.858;4.472;2024-01-10T06:07:35;-4.50;99.90
23715;DHT22;12036;50.858;4.472;2024-01-10T06:10:01;-4.60;99.90
23715;DHT22;12036;50.858;4.472;2024-01-10T06:12:27;-4.60;99.90
23715;DHT22;12036;50.858;4.472;2024-01-10T06:14:53;-4.50;99.90
23715;DHT22;12036;50.858;4.472;2024-01-10T06:17:19;-4.60;99.90
23715;DHT22;12036;50.858;4.472;2024-01-10T06:19:45;-4.60;99.90
23715;DHT22;12036;50.858;4.472;2024-01-10T06:22:10;-4.60;99.90
23715;DHT22;12036;50.858;4.472;2024-01-10T06:24:38;-4.60;99.90
23715;DHT22;12036;50.858;4.472;2024-01-10T06:27:04;-4.60;99.90
23715;DHT22;12036;50.858;4.472;2024-01-10T06:29:31;-4.60;99.90
23715;DHT22;12036;50.858;4.472;2024-01-10T06:31:57;-4.60;99.90
23715;DHT22;12036;50.858;4.472;2024-01-10T06:34:23;-4.60;99.90
23715;DHT22;12036;50.858;4.472;2024-01-10T06:36:49;-4.60;99.90
23715;DHT22;12036;50.858;4.472;2024-01-10T06:39:15;-4.50;99.90
23715;DHT22;12036;50.858;4.472;2024-01-10T06:41:42;-4.60;99.90
23715;DHT22;12036;50.858;4.472;2024-01-10T06:44:08;-4.50;99.90
23715;DHT22;12036;50.858;4.472;2024-01-10T06:46:33;-4.50;99.90
23715;DHT22;12036;50.858;4.472;2024-01-10T06:48:59;-4.60;99.90
23715;DHT22;12036;50.858;4.472;2024-01-10T06:51:25;-4.60;99.90
23715;DHT22;12036;50.858;4.472;2024-01-10T06:53:52;-4.60;99.90
23715;DHT22;12036;50.858;4.472;2024-01-10T06:56:18;-4.50;99.90
23715;DHT22;12036;50.858;4.472;2024-01-10T06:58:44;-4.60;99.90
23715;DHT22;12036;50.858;4.472;2024-01-10T07:01:13;-4.50;99.90
23715;DHT22;12036;50.858;4.472;2024-01-10T07:03:39;-4.50;99.90
23715;DHT22;12036;50.858;4.472;2024-01-10T07:06:05;-4.50;99.90
23715;DHT22;12036;50.858;4.472;2024-01-10T07:08:31;-4.50;99.90
23715;DHT22;12036;50.858;4.472;2024-01-10T07:10:57;-4.50;99.90
23715;DHT22;12036;50.858;4.472;2024-01-10T07:13:23;-4.60;99.90
23715;DHT22;12036;50.858;4.472;2024-01-10T07:15:49;-4.50;99.90
23715;DHT22;12036;50.858;4.472;2024-01-10T07:18:16;-4.60;99.90
23715;DHT22;12036;50.858;4.472;2024-01-10T07:20:42;-4.50;99.90
23715;DHT22;12036;50.858;4.472;2024-01-10T07:23:08;-4.60;99.90
23715;DHT22;12036;50.858;4.472;2024-01-10T07:25:33;-4.50;99.90
23715;DHT22;12036;50.858;4.472;2024-01-10T07:27:59;-4.60;99.90
23715;DHT22;12036;50.858;4.472;2024-01-10T07:30:26;-4.60;99.90
23715;DHT22;12036;50.858;4.472;2024-01-10T07:32:51;-4.70;99.90
23715;DHT22;12036;50.858;4.472;2024-01-10T07:35:17;-4.70;99.90
23715;DHT22;12036;50.858;4.472;2024-01-10T07:37:42;-4.60;99.90
23715;DHT22;12036;50.858;4.472;2024-01-10T07:40:09;-4.70;99.90
23715;DHT22;12036;50.858;4.472;2024-01-10T07:42:36;-4.70;99.90
23715;DHT22;12036;50.858;4.472;2024-01-10T07:45:03;-4.70;99.90
23715;DHT22;12036;50.858;4.472;2024-01-10T07:47:34;-4.70;99.90
23715;DHT22;12036;50.858;4.472;2024-01-10T07:50:06;-4.70;99.90
23715;DHT22;12036;50.858;4.472;2024-01-10T07:52:33;-4.70;99.90
23715;DHT22;12036;50.858;4.472;2024-01-10T07:54:59;-4.70;99.90
23715;DHT22;12036;50.858;4.472;2024-01-10T07:57:25;-4.60;99.90
23715;DHT22;12036;50.858;4.472;2024-01-10T07:59:52;-4.60;99.90
23715;DHT22;12036;50.858;4.472;2024-01-10T08:02:18;-4.60;99.90
23715;DHT22;12036;50.858;4.472;2024-01-10T08:04:43;-4.60;99.90
23715;DHT22;12036;50.858;4.472;2024-01-10T08:07:09;-4.50;99.90
23715;DHT22;12036;50.858;4.472;2024-01-10T08:09:35;-4.60;99.90
23715;DHT22;12036;50.858;4.472;2024-01-10T08:12:02;-4.60;99.90
23715;DHT22;12036;50.858;4.472;2024-01-10T08:14:28;-4.60;99.90
23715;DHT22;12036;50.858;4.472;2024-01-10T08:16:54;-4.50;99.90
23715;DHT22;12036;50.858;4.472;2024-01-10T08:19:26;-4.50;99.90
23715;DHT22;12036;50.858;4.472;2024-01-10T08:21:53;-4.50;99.90
23715;DHT22;12036;50.858;4.472;2024-01-10T08:24:19;-4.50;99.90
23715;DHT22;12036;50.858;4.472;2024-01-10T08:26:45;-4.50;99.90
23715;DHT22;12036;50.858;4.472;2024-01-10T08:29:11;-4.40;99.90
23715;DHT22;12036;50.858;4.472;2024-01-10T08:31:37;-4.30;99.90
23715;DHT22;12036;50.858;4.472;2024-01-10T08:34:04;-4.30;99.90
23715;DHT22;12036;50.858;4.472;2024-01-10T08:36:30;-4.20;99.90
23715;DHT22;12036;50.858;4.472;2024-01-10T08:38:55;-4.20;99.90
23715;DHT22;12036;50.858;4.472;2024-01-10T08:41:21;-4.20;99.90
23715;DHT22;12036;50.858;4.472;2024-01-10T08:43:47;-4.10;99.90
23715;DHT22;12036;50.858;4.472;2024-01-10T08:46:13;-4.00;99.90
23715;DHT22;12036;50.858;4.472;2024-01-10T08:48:38;-4.00;99.90
23715;DHT22;12036;50.858;4.472;2024-01-10T08:51:04;-4.00;99.90
23715;DHT22;12036;50.858;4.472;2024-01-10T08:53:30;-3.90;99.90
23715;DHT22;12036;50.858;4.472;2024-01-10T08:55:55;-3.80;99.90
23715;DHT22;12036;50.858;4.472;2024-01-10T08:58:21;-3.80;99.90
23715;DHT22;12036;50.858;4.472;2024-01-10T09:00:47;-3.70;99.90
23715;DHT22;12036;50.858;4.472;2024-01-10T09:03:13;-3.60;99.90
23715;DHT22;12036;50.858;4.472;2024-01-10T09:05:38;-3.40;99.90
23715;DHT22;12036;50.858;4.472;2024-01-10T09:08:04;-3.50;99.90
23715;DHT22;12036;50.858;4.472;2024-01-10T09:10:30;-3.50;99.90
23715;DHT22;12036;50.858;4.472;2024-01-10T09:12:58;-3.40;99.90
23715;DHT22;12036;50.858;4.472;2024-01-10T09:15:23;-3.30;99.90
23715;DHT22;12036;50.858;4.472;2024-01-10T09:17:50;-3.30;99.90
23715;DHT22;12036;50.858;4.472;2024-01-10T09:20:17;-3.20;99.90
23715;DHT22;12036;50.858;4.472;2024-01-10T09:22:43;-3.20;99.90
23715;DHT22;12036;50.858;4.472;2024-01-10T09:25:09;-3.10;99.90
23715;DHT22;12036;50.858;4.472;2024-01-10T09:27:38;-3.10;99.90
23715;DHT22;12036;50.858;4.472;2024-01-10T09:30:06;-3.10;99.90
23715;DHT22;12036;50.858;4.472;2024-01-10T09:32:35;-3.10;99.90
23715;DHT22;12036;50.858;4.472;2024-01-10T09:35:01;-3.00;99.90
23715;DHT22;12036;50.858;4.472;2024-01-10T09:37:27;-3.00;99.90
23715;DHT22;12036;50.858;4.472;2024-01-10T09:39:53;-2.90;99.90
23715;DHT22;12036;50.858;4.472;2024-01-10T09:42:19;-2.80;99.90
23715;DHT22;12036;50.858;4.472;2024-01-10T09:44:47;-2.70;99.90
23715;DHT22;12036;50.858;4.472;2024-01-10T09:47:15;-2.70;99.90
23715;DHT22;12036;50.858;4.472;2024-01-10T09:49:41;-2.70;99.90
23715;DHT22;12036;50.858;4.472;2024-01-10T09:52:10;-2.60;99.90
23715;DHT22;12036;50.858;4.472;2024-01-10T09:54:40;-2.60;99.90
23715;DHT22;12036;50.858;4.472;2024-01-10T09:57:06;-2.50;99.90
23715;DHT22;12036;50.858;4.472;2024-01-10T09:59:32;-2.50;99.90
23715;DHT22;12036;50.858;4.472;2024-01-10T10:01:57;-2.40;99.90
23715;DHT22;12036;50.858;4.472;2024-01-10T10:04:27;-2.40;99.90
23715;DHT22;12036;50.858;4.472;2024-01-10T10:07:00;-2.30;99.90
23715;DHT22;12036;50.858;4.472;2024-01-10T10:09:27;-2.20;99.90
23715;DHT22;12036;50.858;4.472;2024-01-10T10:11:56;-2.10;99.90
23715;DHT22;12036;50.858;4.472;2024-01-10T10:14:28;-2.00;99.90
23715;DHT22;12036;50.858;4.472;2024-01-10T10:16:54;-2.00;99.90
23715;DHT22;12036;50.858;4.472;2024-01-10T10:19:24;-1.90;99.90
23715;DHT22;12036;50.858;4.472;2024-01-10T10:21:50;-2.00;99.90
23715;DHT22;12036;50.858;4.472;2024-01-10T10:24:17;-2.00;99.90
23715;DHT22;12036;50.858;4.472;2024-01-10T10:26:42;-1.90;99.90
23715;DHT22;12036;50.858;4.472;2024-01-10T10:29:08;-1.90;99.90
23715;DHT22;12036;50.858;4.472;2024-01-10T10:31:35;-1.70;99.80
23715;DHT22;12036;50.858;4.472;2024-01-10T10:34:01;-1.60;99.20
23715;DHT22;12036;50.858;4.472;2024-01-10T10:36:29;-1.50;98.90
23715;DHT22;12036;50.858;4.472;2024-01-10T10:38:55;-1.20;97.50
23715;DHT22;12036;50.858;4.472;2024-01-10T10:41:21;-1.20;97.40
23715;DHT22;12036;50.858;4.472;2024-01-10T10:43:47;-1.30;97.60
23715;DHT22;12036;50.858;4.472;2024-01-10T10:46:15;-1.30;98.00
23715;DHT22;12036;50.858;4.472;2024-01-10T10:48:42;-1.30;98.10
23715;DHT22;12036;50.858;4.472;2024-01-10T10:51:19;-1.40;98.30
23715;DHT22;12036;50.858;4.472;2024-01-10T10:53:49;-1.20;98.20
23715;DHT22;12036;50.858;4.472;2024-01-10T10:56:15;-1.10;97.30
23715;DHT22;12036;50.858;4.472;2024-01-10T10:58:44;-1.00;97.10
23715;DHT22;12036;50.858;4.472;2024-01-10T11:01:12;-1.10;96.70
23715;DHT22;12036;50.858;4.472;2024-01-10T11:03:39;-1.10;97.10
23715;DHT22;12036;50.858;4.472;2024-01-10T11:06:06;-1.10;97.50
23715;DHT22;12036;50.858;4.472;2024-01-10T11:09:05;-0.90;96.70
23715;DHT22;12036;50.858;4.472;2024-01-10T11:16:54;-0.90;96.00
23715;DHT22;12036;50.858;4.472;2024-01-10T11:21:55;-0.80;95.70
23715;DHT22;12036;50.858;4.472;2024-01-10T11:24:23;-0.80;96.00
23715;DHT22;12036;50.858;4.472;2024-01-10T11:26:49;-0.70;96.00
23715;DHT22;12036;50.858;4.472;2024-01-10T11:29:15;-0.60;95.90
23715;DHT22;12036;50.858;4.472;2024-01-10T11:31:41;-0.50;95.40
23715;DHT22;12036;50.858;4.472;2024-01-10T11:34:08;-0.40;94.50
23715;DHT22;12036;50.858;4.472;2024-01-10T11:36:34;-0.50;94.70
23715;DHT22;12036;50.858;4.472;2024-01-10T11:39:03;-0.50;94.50
23715;DHT22;12036;50.858;4.472;2024-01-10T11:41:31;-0.60;94.80
23715;DHT22;12036;50.858;4.472;2024-01-10T11:46:46;-0.40;94.60
23715;DHT22;12036;50.858;4.472;2024-01-10T11:49:17;-0.20;94.50
23715;DHT22;12036;50.858;4.472;2024-01-10T11:51:43;0.00;93.60
23715;DHT22;12036;50.858;4.472;2024-01-10T11:54:09;0.10;92.90
23715;DHT22;12036;50.858;4.472;2024-01-10T11:56:42;0.10;92.30
23715;DHT22;12036;50.858;4.472;2024-01-10T11:59:13;0.10;92.10
23715;DHT22;12036;50.858;4.472;2024-01-10T12:01:42;-0.10;92.30
23715;DHT22;12036;50.858;4.472;2024-01-10T12:04:08;0.00;92.30
23715;DHT22;12036;50.858;4.472;2024-01-10T12:06:35;0.00;92.10
23715;DHT22;12036;50.858;4.472;2024-01-10T12:09:02;0.10;92.10
23715;DHT22;12036;50.858;4.472;2024-01-10T12:11:37;0.10;92.20
23715;DHT22;12036;50.858;4.472;2024-01-10T12:14:04;0.10;92.00
23715;DHT22;12036;50.858;4.472;2024-01-10T12:16:32;0.10;92.10
23715;DHT22;12036;50.858;4.472;2024-01-10T12:18:58;0.00;92.20
23715;DHT22;12036;50.858;4.472;2024-01-10T12:21:23;0.00;92.20
23715;DHT22;12036;50.858;4.472;2024-01-10T12:23:49;0.10;92.30
23715;DHT22;12036;50.858;4.472;2024-01-10T12:26:17;0.10;92.20
23715;DHT22;12036;50.858;4.472;2024-01-10T12:28:54;0.20;91.60
23715;DHT22;12036;50.858;4.472;2024-01-10T12:31:20;0.30;91.40
23715;DHT22;12036;50.858;4.472;2024-01-10T12:33:48;0.20;91.70
23715;DHT22;12036;50.858;4.472;2024-01-10T12:36:17;0.20;91.30
23715;DHT22;12036;50.858;4.472;2024-01-10T12:38:43;0.20;91.20
23715;DHT22;12036;50.858;4.472;2024-01-10T12:41:10;0.20;91.00
23715;DHT22;12036;50.858;4.472;2024-01-10T12:43:36;0.30;90.70
23715;DHT22;12036;50.858;4.472;2024-01-10T12:46:10;0.50;90.20
23715;DHT22;12036;50.858;4.472;2024-01-10T12:48:40;0.40;90.10
23715;DHT22;12036;50.858;4.472;2024-01-10T12:51:09;0.40;90.30
23715;DHT22;12036;50.858;4.472;2024-01-10T12:53:40;0.40;90.20
23715;DHT22;12036;50.858;4.472;2024-01-10T12:56:07;0.50;90.20
23715;DHT22;12036;50.858;4.472;2024-01-10T12:58:34;0.60;89.00
23715;DHT22;12036;50.858;4.472;2024-01-10T13:01:01;0.50;89.60
23715;DHT22;12036;50.858;4.472;2024-01-10T13:03:27;0.40;90.20
23715;DHT22;12036;50.858;4.472;2024-01-10T13:05:53;0.50;89.80
23715;DHT22;12036;50.858;4.472;2024-01-10T13:08:18;0.60;89.20
23715;DHT22;12036;50.858;4.472;2024-01-10T13:10:45;0.70;88.40
23715;DHT22;12036;50.858;4.472;2024-01-10T13:13:11;0.70;88.90
23715;DHT22;12036;50.858;4.472;2024-01-10T13:15:37;0.80;89.70
23715;DHT22;12036;50.858;4.472;2024-01-10T13:18:03;0.80;89.70
23715;DHT22;12036;50.858;4.472;2024-01-10T13:20:29;0.90;88.60
23715;DHT22;12036;50.858;4.472;2024-01-10T13:22:54;1.00;87.90
23715;DHT22;12036;50.858;4.472;2024-01-10T13:25:20;1.10;86.60
23715;DHT22;12036;50.858;4.472;2024-01-10T13:27:52;1.00;87.00
23715;DHT22;12036;50.858;4.472;2024-01-10T13:30:18;1.20;85.90
23715;DHT22;12036;50.858;4.472;2024-01-10T13:32:44;1.20;86.00
23715;DHT22;12036;50.858;4.472;2024-01-10T13:35:10;1.30;85.80
23715;DHT22;12036;50.858;4.472;2024-01-10T13:37:37;1.30;85.60
23715;DHT22;12036;50.858;4.472;2024-01-10T13:40:03;1.30;85.40
23715;DHT22;12036;50.858;4.472;2024-01-10T13:42:31;1.30;85.60
23715;DHT22;12036;50.858;4.472;2024-01-10T13:44:57;1.40;84.40
23715;DHT22;12036;50.858;4.472;2024-01-10T13:47:22;1.40;85.10
23715;DHT22;12036;50.858;4.472;2024-01-10T13:49:48;1.40;84.80
23715;DHT22;12036;50.858;4.472;2024-01-10T13:52:14;1.40;84.60
23715;DHT22;12036;50.858;4.472;2024-01-10T13:54:40;1.40;83.50
23715;DHT22;12036;50.858;4.472;2024-01-10T13:57:05;1.40;83.70
23715;DHT22;12036;50.858;4.472;2024-01-10T13:59:31;1.50;84.30
23715;DHT22;12036;50.858;4.472;2024-01-10T14:01:57;1.50;83.40
23715;DHT22;12036;50.858;4.472;2024-01-10T14:04:24;1.50;83.80
23715;DHT22;12036;50.858;4.472;2024-01-10T14:06:50;1.40;84.50
23715;DHT22;12036;50.858;4.472;2024-01-10T14:09:16;1.50;84.10
23715;DHT22;12036;50.858;4.472;2024-01-10T14:11:43;1.50;84.10
23715;DHT22;12036;50.858;4.472;2024-01-10T14:14:10;1.40;84.40
23715;DHT22;12036;50.858;4.472;2024-01-10T14:16:35;1.50;84.00
23715;DHT22;12036;50.858;4.472;2024-01-10T14:19:01;1.50;83.60
23715;DHT22;12036;50.858;4.472;2024-01-10T14:21:27;1.50;83.70
23715;DHT22;12036;50.858;4.472;2024-01-10T14:23:52;1.50;83.50
23715;DHT22;12036;50.858;4.472;2024-01-10T14:26:18;1.50;83.80
23715;DHT22;12036;50.858;4.472;2024-01-10T14:28:44;1.40;84.20
23715;DHT22;12036;50.858;4.472;2024-01-10T14:31:09;1.40;84.70
23715;DHT22;12036;50.858;4.472;2024-01-10T14:33:39;1.40;84.10
23715;DHT22;12036;50.858;4.472;2024-01-10T14:36:05;1.50;83.90
23715;DHT22;12036;50.858;4.472;2024-01-10T14:38:31;1.50;84.10
23715;DHT22;12036;50.858;4.472;2024-01-10T14:40:56;1.50;84.30
23715;DHT22;12036;50.858;4.472;2024-01-10T14:43:22;1.40;84.60
23715;DHT22;12036;50.858;4.472;2024-01-10T14:45:47;1.40;84.80
23715;DHT22;12036;50.858;4.472;2024-01-10T14:48:14;1.50;84.50
23715;DHT22;12036;50.858;4.472;2024-01-10T14:50:39;1.50;84.70
23715;DHT22;12036;50.858;4.472;2024-01-10T14:53:05;1.40;84.50
23715;DHT22;12036;50.858;4.472;2024-01-10T14:55:31;1.40;84.80
23715;DHT22;12036;50.858;4.472;2024-01-10T14:57:56;1.30;85.20
23715;DHT22;12036;50.858;4.472;2024-01-10T15:00:22;1.30;85.40
23715;DHT22;12036;50.858;4.472;2024-01-10T15:02:48;1.30;85.30
23715;DHT22;12036;50.858;4.472;2024-01-10T15:05:14;1.30;85.40
23715;DHT22;12036;50.858;4.472;2024-01-10T15:07:39;1.30;85.50
23715;DHT22;12036;50.858;4.472;2024-01-10T15:10:05;1.30;85.50
23715;DHT22;12036;50.858;4.472;2024-01-10T15:12:32;1.20;85.60
23715;DHT22;12036;50.858;4.472;2024-01-10T15:14:58;1.10;86.00
23715;DHT22;12036;50.858;4.472;2024-01-10T15:17:26;1.10;86.40
23715;DHT22;12036;50.858;4.472;2024-01-10T15:19:52;1.10;86.50
23715;DHT22;12036;50.858;4.472;2024-01-10T15:22:17;1.00;86.70
23715;DHT22;12036;50.858;4.472;2024-01-10T15:24:43;0.90;87.20
23715;DHT22;12036;50.858;4.472;2024-01-10T15:27:09;0.90;87.50
23715;DHT22;12036;50.858;4.472;2024-01-10T15:29:39;0.80;87.50
23715;DHT22;12036;50.858;4.472;2024-01-10T15:32:05;0.70;87.80
23715;DHT22;12036;50.858;4.472;2024-01-10T15:34:31;0.70;88.40
23715;DHT22;12036;50.858;4.472;2024-01-10T15:36:57;0.60;88.20
23715;DHT22;12036;50.858;4.472;2024-01-10T15:39:24;0.50;88.60